Station History

Weather Underground - logo

Station Historical Data
Daily Summary for November 8, 2017 Units:  English    Metric   Both
« Previous Day
Next Day »
Daily Weekly Monthly Yearly Custom
  High: Low: Average:
Temperature: 75.5 °F 41.8 °F 57.8 °F
Dew Point: 53.0 °F 38.6 °F 45.8 °F
Humidity: 89 % 32 % 68 %
Wind Speed: 4.0 mph 0.0 mph 0.5 mph
Wind Gust: 4.0 mph - -
Wind:- - West
Pressure: 30.10 in 29.94 in -
Precipitation: 0.00 in    
Historical Graphs
 
 
Tabular Data for November 8, 2017
Time Temperature Dew Point Pressure Wind Wind Speed Wind Gust Humidity Rainfall Rate (Hourly)
00:04 45.3 °F 41.1 °F 30.10 in Calm     85 % 0.00 in
00:09 45.3 °F 41.1 °F 30.10 in Calm     85 % 0.00 in
00:14 45.4 °F 41.2 °F 30.10 in Calm     85 % 0.00 in
00:19 45.5 °F 41.3 °F 30.10 in Calm     85 % 0.00 in
00:25 45.8 °F 41.5 °F 30.10 in Calm     85 % 0.00 in
00:30 45.7 °F 41.1 °F 30.10 in Calm     84 % 0.00 in
00:35 45.6 °F 41.4 °F 30.10 in Calm     85 % 0.00 in
00:40 45.7 °F 41.1 °F 30.10 in Calm     84 % 0.00 in
00:45 46.0 °F 41.1 °F 30.09 in Calm     83 % 0.00 in
00:50 46.4 °F 40.9 °F 30.09 in Calm     81 % 0.00 in
00:55 46.6 °F 41.1 °F 30.09 in Calm     81 % 0.00 in
01:00 46.7 °F 41.2 °F 30.09 in Calm     81 % 0.00 in
01:05 46.5 °F 41.0 °F 30.09 in Calm     81 % 0.00 in
01:10 46.2 °F 41.0 °F 30.09 in Calm     82 % 0.00 in
01:15 45.4 °F 40.2 °F 30.09 in Calm     82 % 0.00 in
01:20 44.8 °F 40.3 °F 30.09 in Calm     84 % 0.00 in
01:25 44.5 °F 40.3 °F 30.09 in Calm     85 % 0.00 in
01:30 44.5 °F 40.6 °F 30.08 in Calm     86 % 0.00 in
01:35 44.9 °F 40.4 °F 30.08 in Calm     84 % 0.00 in
01:40 45.6 °F 40.7 °F 30.08 in Calm     83 % 0.00 in
01:45 45.9 °F 40.7 °F 30.08 in Calm     82 % 0.00 in
01:50 45.9 °F 41.0 °F 30.08 in Calm     83 % 0.00 in
01:56 45.6 °F 40.4 °F 30.08 in Calm     82 % 0.00 in
02:01 45.3 °F 40.4 °F 30.08 in Calm     83 % 0.00 in
02:06 44.8 °F 40.0 °F 30.08 in Calm     83 % 0.00 in
02:11 44.5 °F 40.0 °F 30.07 in Calm     84 % 0.00 in
02:16 44.3 °F 40.1 °F 30.07 in Calm     85 % 0.00 in
02:21 44.1 °F 39.9 °F 30.07 in Calm     85 % 0.00 in
02:26 44.0 °F 39.8 °F 30.07 in Calm     85 % 0.00 in
02:31 44.0 °F 40.1 °F 30.07 in Calm     86 % 0.00 in
02:36 44.0 °F 40.1 °F 30.07 in Calm     86 % 0.00 in
02:41 43.7 °F 39.8 °F 30.07 in Calm     86 % 0.00 in
02:46 43.5 °F 39.9 °F 30.07 in Calm     87 % 0.00 in
02:51 43.5 °F 39.9 °F 30.07 in Calm     87 % 0.00 in
02:56 43.4 °F 39.8 °F 30.07 in Calm     87 % 0.00 in
03:01 43.2 °F 39.6 °F 30.07 in Calm     87 % 0.00 in
03:06 43.1 °F 39.5 °F 30.06 in Calm     87 % 0.00 in
03:11 43.2 °F 39.6 °F 30.06 in Calm     87 % 0.00 in
03:16 43.3 °F 39.7 °F 30.06 in Calm     87 % 0.00 in
03:21 43.4 °F 39.8 °F 30.06 in Calm     87 % 0.00 in
03:26 43.9 °F 40.0 °F 30.06 in Calm     86 % 0.00 in
03:31 44.2 °F 40.0 °F 30.06 in Calm     85 % 0.00 in
03:36 44.2 °F 40.0 °F 30.06 in Calm     85 % 0.00 in
03:41 43.9 °F 39.7 °F 30.06 in Calm     85 % 0.00 in
03:50 43.7 °F 39.5 °F 30.05 in Calm     85 % 0.00 in
03:55 43.6 °F 39.4 °F 30.05 in Calm     85 % 0.00 in
04:00 43.7 °F 39.8 °F 30.05 in Calm     86 % 0.00 in
04:05 43.6 °F 39.7 °F 30.05 in Calm     86 % 0.00 in
04:10 43.5 °F 39.6 °F 30.05 in Calm     86 % 0.00 in
04:15 43.3 °F 39.7 °F 30.05 in Calm     87 % 0.00 in
04:20 43.5 °F 40.2 °F 30.05 in Calm     88 % 0.00 in
04:25 43.6 °F 40.0 °F 30.05 in Calm     87 % 0.00 in
04:30 43.7 °F 40.1 °F 30.05 in Calm     87 % 0.00 in
04:35 43.8 °F 39.9 °F 30.04 in Calm     86 % 0.00 in
04:40 43.8 °F 40.2 °F 30.04 in Calm     87 % 0.00 in
04:45 43.8 °F 40.2 °F 30.05 in Calm     87 % 0.00 in
04:50 43.8 °F 40.2 °F 30.04 in Calm     87 % 0.00 in
04:55 43.9 °F 40.3 °F 30.04 in Calm     87 % 0.00 in
05:00 44.0 °F 40.4 °F 30.04 in Calm     87 % 0.00 in
05:05 44.1 °F 40.5 °F 30.04 in Calm     87 % 0.00 in
05:10 44.3 °F 40.7 °F 30.04 in Calm     87 % 0.00 in
05:15 44.2 °F 40.3 °F 30.04 in Calm     86 % 0.00 in
05:20 43.7 °F 39.8 °F 30.04 in Calm     86 % 0.00 in
05:25 43.2 °F 39.3 °F 30.04 in Calm     86 % 0.00 in
05:30 43.2 °F 39.3 °F 30.04 in Calm     86 % 0.00 in
05:35 43.1 °F 39.2 °F 30.04 in Calm     86 % 0.00 in
05:40 42.9 °F 39.3 °F 30.04 in Calm     87 % 0.00 in
05:45 42.5 °F 38.9 °F 30.04 in Calm     87 % 0.00 in
05:50 42.3 °F 38.7 °F 30.04 in Calm     87 % 0.00 in
05:55 42.0 °F 38.7 °F 30.04 in Calm     88 % 0.00 in
06:00 41.9 °F 38.6 °F 30.04 in Calm     88 % 0.00 in
06:05 41.9 °F 38.9 °F 30.05 in Calm     89 % 0.00 in
06:07 41.8 °F 38.8 °F 30.05 in Calm     89 % 0.00 in
06:12 41.8 °F 38.8 °F 30.05 in Calm     89 % 0.00 in
06:17 41.9 °F 38.9 °F 30.05 in Calm     89 % 0.00 in
06:27 42.3 °F 39.0 °F 30.05 in Calm     88 % 0.00 in
06:32 42.3 °F 39.0 °F 30.06 in Calm     88 % 0.00 in
06:37 42.3 °F 39.0 °F 30.06 in Calm     88 % 0.00 in
06:42 42.4 °F 38.8 °F 30.06 in Calm     87 % 0.00 in
06:47 42.7 °F 39.1 °F 30.06 in Calm   0.1 mph 87 % 0.00 in
06:52 43.0 °F 39.1 °F 30.06 in Calm     86 % 0.00 in
06:57 43.3 °F 39.4 °F 30.06 in Calm     86 % 0.00 in
07:02 43.8 °F 39.6 °F 30.07 in Calm     85 % 0.00 in
07:07 44.1 °F 39.9 °F 30.07 in Calm     85 % 0.00 in
07:12 44.8 °F 40.0 °F 30.07 in Calm     83 % 0.00 in
07:17 45.7 °F 40.5 °F 30.07 in Calm     82 % 0.00 in
07:22 46.6 °F 41.4 °F 30.07 in Calm     82 % 0.00 in
07:27 47.8 °F 41.9 °F 30.07 in Calm     80 % 0.00 in
07:32 49.0 °F 42.1 °F 30.07 in Calm     77 % 0.00 in
07:37 50.4 °F 42.1 °F 30.07 in Calm     73 % 0.00 in
07:42 51.7 °F 43.0 °F 30.07 in Calm     72 % 0.00 in
07:47 52.9 °F 43.4 °F 30.08 in Calm     70 % 0.00 in
07:52 54.0 °F 43.3 °F 30.08 in Calm     67 % 0.00 in
07:57 54.7 °F 43.6 °F 30.08 in Calm     66 % 0.00 in
08:02 56.0 °F 44.0 °F 30.08 in Calm     64 % 0.00 in
08:07 57.0 °F 42.8 °F 30.08 in Calm     59 % 0.00 in
08:12 57.9 °F 44.1 °F 30.08 in Calm     60 % 0.00 in
08:17 58.0 °F 43.7 °F 30.08 in Calm     59 % 0.00 in
08:22 58.9 °F 44.1 °F 30.08 in Calm     58 % 0.00 in
08:28 60.1 °F 46.6 °F 30.08 in Calm     61 % 0.00 in
08:33 61.2 °F 46.8 °F 30.08 in Calm     59 % 0.00 in
08:38 61.1 °F 46.7 °F 30.08 in Calm     59 % 0.00 in
08:43 61.3 °F 46.4 °F 30.08 in Calm     58 % 0.00 in
08:48 61.6 °F 47.6 °F 30.08 in Calm     60 % 0.00 in
08:53 62.6 °F 47.6 °F 30.08 in Calm     58 % 0.00 in
08:58 63.0 °F 48.4 °F 30.08 in Calm     59 % 0.00 in
09:03 63.3 °F 48.3 °F 30.08 in South 1.0 mph 1.0 mph 58 % 0.00 in
09:08 64.0 °F 47.5 °F 30.08 in East 1.2 mph 1.2 mph 55 % 0.00 in
09:13 64.3 °F 48.3 °F 30.07 in ESE 1.0 mph   56 % 0.00 in
09:18 64.7 °F 47.2 °F 30.07 in East 1.2 mph 1.2 mph 53 % 0.00 in
09:23 64.7 °F 47.2 °F 30.07 in Calm     53 % 0.00 in
09:28 65.0 °F 47.4 °F 30.07 in SSE 1.2 mph   53 % 0.00 in
09:33 65.6 °F 46.5 °F 30.07 in East 1.2 mph 1.2 mph 50 % 0.00 in
09:38 65.6 °F 46.5 °F 30.08 in Calm   0.1 mph 50 % 0.00 in
09:43 65.7 °F 47.1 °F 30.08 in Calm     51 % 0.00 in
09:48 66.5 °F 47.3 °F 30.08 in NW 1.0 mph   50 % 0.00 in
09:53 66.6 °F 46.8 °F 30.08 in Calm     49 % 0.00 in
09:58 66.5 °F 46.2 °F 30.08 in NW 1.2 mph 1.2 mph 48 % 0.00 in
10:03 66.4 °F 46.7 °F 30.08 in NW 1.2 mph 1.2 mph 49 % 0.00 in
10:08 66.5 °F 47.3 °F 30.08 in ESE 2.3 mph 2.3 mph 50 % 0.00 in
10:13 66.8 °F 48.1 °F 30.08 in NW 1.2 mph 1.2 mph 51 % 0.00 in
10:18 66.8 °F 47.0 °F 30.08 in WNW 1.2 mph 1.2 mph 49 % 0.00 in
10:23 66.9 °F 48.2 °F 30.08 in WNW 2.0 mph 2.0 mph 51 % 0.00 in
10:28 66.9 °F 47.1 °F 30.08 in NW 1.2 mph 1.2 mph 49 % 0.00 in
10:33 66.9 °F 47.1 °F 30.08 in WNW 1.2 mph 1.2 mph 49 % 0.00 in
10:38 67.2 °F 48.5 °F 30.08 in NW 3.5 mph 3.5 mph 51 % 0.00 in
10:43 67.4 °F 47.6 °F 30.08 in NW 3.5 mph 3.5 mph 49 % 0.00 in
10:48 67.5 °F 48.2 °F 30.08 in NW 1.2 mph   50 % 0.00 in
10:53 67.8 °F 47.9 °F 30.08 in WNW 2.3 mph 2.3 mph 49 % 0.00 in
10:58 67.8 °F 47.4 °F 30.07 in West 1.2 mph 1.2 mph 48 % 0.00 in
11:03 68.2 °F 47.8 °F 30.07 in WNW 1.2 mph   48 % 0.00 in
11:08 68.8 °F 48.9 °F 30.07 in Calm     49 % 0.00 in
11:13 68.9 °F 48.4 °F 30.07 in NW 2.3 mph 2.3 mph 48 % 0.00 in
11:18 68.9 °F 47.8 °F 30.06 in NNE 1.2 mph 1.2 mph 47 % 0.00 in
11:24 68.9 °F 47.8 °F 30.06 in NW 2.3 mph 2.3 mph 47 % 0.00 in
11:29 68.9 °F 47.3 °F 30.06 in NNW 1.2 mph   46 % 0.00 in
11:34 69.1 °F 49.1 °F 30.05 in Calm     49 % 0.00 in
11:39 69.7 °F 48.0 °F 30.05 in WNW 1.2 mph 1.2 mph 46 % 0.00 in
11:44 69.9 °F 48.2 °F 30.04 in Calm     46 % 0.00 in
11:49 70.3 °F 47.3 °F 30.04 in NW 2.3 mph 2.3 mph 44 % 0.00 in
11:54 70.5 °F 46.3 °F 30.04 in NW 2.3 mph 2.3 mph 42 % 0.00 in
11:59 71.0 °F 45.5 °F 30.03 in NW 1.2 mph 1.2 mph 40 % 0.00 in
12:04 71.4 °F 45.8 °F 30.03 in NE 2.3 mph 2.3 mph 40 % 0.00 in
12:09 71.7 °F 46.7 °F 30.02 in WNW 2.0 mph 2.0 mph 41 % 0.00 in
12:14 72.1 °F 46.4 °F 30.02 in North 2.3 mph 2.3 mph 40 % 0.00 in
12:19 72.6 °F 44.8 °F 30.02 in ESE 1.2 mph 1.2 mph 37 % 0.00 in
12:24 72.9 °F 45.1 °F 30.02 in NW 1.2 mph 1.2 mph 37 % 0.00 in
12:29 72.8 °F 46.4 °F 30.01 in NW 2.0 mph 2.0 mph 39 % 0.00 in
12:34 72.9 °F 45.8 °F 30.01 in WNW 2.0 mph 2.0 mph 38 % 0.00 in
12:39 73.0 °F 45.9 °F 30.01 in NW 2.3 mph 2.3 mph 38 % 0.00 in
12:44 73.3 °F 44.7 °F 30.01 in NW 1.0 mph 1.0 mph 36 % 0.00 in
12:49 73.7 °F 45.1 °F 30.00 in NW 3.5 mph 3.5 mph 36 % 0.00 in
12:54 73.9 °F 45.3 °F 30.00 in NW 1.2 mph 1.2 mph 36 % 0.00 in
12:59 74.1 °F 43.9 °F 30.00 in NNW 4.0 mph 4.0 mph 34 % 0.00 in
13:04 74.4 °F 43.4 °F 30.00 in Calm     33 % 0.00 in
13:09 74.6 °F 44.4 °F 30.00 in WNW 2.0 mph 2.0 mph 34 % 0.00 in
13:14 74.9 °F 43.0 °F 29.99 in NW 1.2 mph 1.2 mph 32 % 0.00 in
13:19 74.9 °F 43.8 °F 29.99 in WNW 1.2 mph 1.2 mph 33 % 0.00 in
13:24 75.1 °F 44.8 °F 29.99 in NW 2.3 mph 2.3 mph 34 % 0.00 in
13:29 75.1 °F 44.0 °F 29.99 in NNW 2.3 mph 2.3 mph 33 % 0.00 in
13:34 75.3 °F 44.2 °F 29.99 in WNW 3.5 mph 3.5 mph 33 % 0.00 in
13:39 75.2 °F 46.4 °F 29.98 in North 2.3 mph 2.3 mph 36 % 0.00 in
13:44 75.3 °F 47.2 °F 29.98 in WNW 3.5 mph 3.5 mph 37 % 0.00 in
13:49 75.5 °F 47.4 °F 29.98 in NW 1.2 mph 1.2 mph 37 % 0.00 in
13:54 75.3 °F 47.9 °F 29.98 in WNW 3.5 mph 3.5 mph 38 % 0.00 in
13:59 75.1 °F 47.0 °F 29.98 in NNW 3.5 mph 3.5 mph 37 % 0.00 in
14:04 75.1 °F 47.8 °F 29.98 in WSW 3.5 mph 3.5 mph 38 % 0.00 in
14:09 75.3 °F 47.9 °F 29.98 in NW 2.3 mph 2.3 mph 38 % 0.00 in
14:14 75.1 °F 47.0 °F 29.98 in NW 2.3 mph 2.3 mph 37 % 0.00 in
14:19 74.9 °F 46.1 °F 29.98 in NW 3.5 mph 3.5 mph 36 % 0.00 in
14:24 74.7 °F 47.4 °F 29.98 in NW 2.3 mph 2.3 mph 38 % 0.00 in
14:30 74.4 °F 48.5 °F 29.98 in NW 1.0 mph 1.0 mph 40 % 0.00 in
14:35 74.1 °F 46.9 °F 29.98 in NW 2.3 mph 2.3 mph 38 % 0.00 in
14:40 73.9 °F 47.4 °F 29.97 in NW 1.0 mph   39 % 0.00 in
14:45 73.8 °F 46.6 °F 29.97 in NW 1.2 mph 1.2 mph 38 % 0.00 in
14:50 73.7 °F 47.2 °F 29.97 in West 1.2 mph 1.2 mph 39 % 0.00 in
14:55 73.5 °F 47.0 °F 29.97 in WNW 1.2 mph 1.2 mph 39 % 0.00 in
15:00 73.4 °F 47.6 °F 29.97 in NW 1.2 mph 1.2 mph 40 % 0.00 in
15:05 73.3 °F 47.5 °F 29.97 in WNW 2.3 mph 2.3 mph 40 % 0.00 in
15:10 73.3 °F 48.2 °F 29.97 in NW 1.2 mph 1.2 mph 41 % 0.00 in
15:15 73.3 °F 47.5 °F 29.96 in WNW 1.2 mph   40 % 0.00 in
15:20 73.4 °F 47.6 °F 29.96 in WNW 1.2 mph   40 % 0.00 in
15:21 73.4 °F 47.6 °F 29.96 in NW 1.2 mph 1.2 mph 40 % 0.00 in
15:26 73.4 °F 47.6 °F 29.96 in NW 1.2 mph 1.2 mph 40 % 0.00 in
15:31 73.2 °F 47.4 °F 29.96 in West 1.2 mph 1.2 mph 40 % 0.00 in
15:36 73.0 °F 47.2 °F 29.96 in NW 1.2 mph 1.2 mph 40 % 0.00 in
15:41 72.9 °F 47.8 °F 29.96 in NW 1.2 mph   41 % 0.00 in
15:46 72.9 °F 47.8 °F 29.96 in Calm     41 % 0.00 in
15:51 72.8 °F 47.7 °F 29.96 in Calm     41 % 0.00 in
15:56 72.7 °F 48.3 °F 29.96 in WNW 1.2 mph   42 % 0.00 in
16:01 72.5 °F 48.7 °F 29.96 in NW 1.2 mph 1.2 mph 43 % 0.00 in
16:06 72.3 °F 49.2 °F 29.95 in Calm     44 % 0.00 in
16:11 72.1 °F 50.2 °F 29.95 in Calm     46 % 0.00 in
16:16 71.8 °F 50.5 °F 29.95 in Calm     47 % 0.00 in
16:21 71.7 °F 50.4 °F 29.95 in NW 1.2 mph   47 % 0.00 in
16:26 71.4 °F 51.2 °F 29.95 in Calm     49 % 0.00 in
16:31 71.1 °F 51.5 °F 29.95 in Calm     50 % 0.00 in
16:36 70.5 °F 51.5 °F 29.94 in Calm     51 % 0.00 in
16:41 69.8 °F 51.9 °F 29.94 in Calm     53 % 0.00 in
16:46 69.0 °F 52.2 °F 29.94 in Calm     55 % 0.00 in
16:51 68.2 °F 52.4 °F 29.94 in Calm     57 % 0.00 in
16:56 67.5 °F 52.7 °F 29.94 in Calm     59 % 0.00 in
17:01 66.8 °F 52.5 °F 29.94 in Calm     60 % 0.00 in
17:06 66.0 °F 52.2 °F 29.94 in Calm     61 % 0.00 in
17:11 65.3 °F 51.9 °F 29.94 in Calm     62 % 0.00 in
17:16 64.7 °F 52.2 °F 29.94 in Calm     64 % 0.00 in
17:21 64.2 °F 52.2 °F 29.94 in Calm     65 % 0.00 in
17:26 63.8 °F 52.6 °F 29.94 in Calm     67 % 0.00 in
17:31 63.4 °F 52.2 °F 29.94 in Calm     67 % 0.00 in
17:36 63.0 °F 52.7 °F 29.94 in Calm     69 % 0.00 in
17:41 62.5 °F 53.0 °F 29.94 in Calm     71 % 0.00 in
17:46 62.0 °F 52.1 °F 29.94 in Calm     70 % 0.00 in
17:51 61.7 °F 52.6 °F 29.94 in Calm     72 % 0.00 in
17:56 61.4 °F 52.7 °F 29.94 in Calm     73 % 0.00 in
18:01 61.2 °F 52.5 °F 29.94 in Calm     73 % 0.00 in
18:06 61.2 °F 52.8 °F 29.94 in Calm     74 % 0.00 in
18:11 61.2 °F 52.8 °F 29.95 in Calm     74 % 0.00 in
18:16 60.9 °F 52.6 °F 29.95 in Calm     74 % 0.00 in
18:21 60.5 °F 52.5 °F 29.95 in Calm     75 % 0.00 in
18:26 60.2 °F 52.6 °F 29.95 in Calm     76 % 0.00 in
18:31 59.9 °F 52.3 °F 29.96 in Calm     76 % 0.00 in
18:37 59.7 °F 52.1 °F 29.96 in Calm     76 % 0.00 in
18:42 59.5 °F 52.3 °F 29.96 in Calm     77 % 0.00 in
18:47 59.5 °F 51.9 °F 29.95 in Calm     76 % 0.00 in
18:52 59.5 °F 51.9 °F 29.95 in Calm     76 % 0.00 in
18:57 59.6 °F 51.7 °F 29.95 in Calm     75 % 0.00 in
19:02 59.5 °F 51.6 °F 29.96 in Calm     75 % 0.00 in
19:07 59.6 °F 51.3 °F 29.96 in Calm     74 % 0.00 in
19:18 59.4 °F 51.1 °F 29.96 in Calm     74 % 0.00 in
19:21 59.4 °F 51.1 °F 29.96 in Calm     74 % 0.00 in
19:26 59.5 °F 50.8 °F 29.97 in Calm     73 % 0.00 in
19:27 59.5 °F 50.8 °F 29.97 in Calm     73 % 0.00 in
19:28 59.5 °F 50.8 °F 29.97 in Calm     73 % 0.00 in
19:31 59.5 °F 50.8 °F 29.97 in Calm     73 % 0.00 in
19:36 59.3 °F 51.4 °F 29.97 in Calm     75 % 0.00 in
19:41 58.6 °F 51.1 °F 29.97 in Calm     76 % 0.00 in
19:42 58.4 °F 50.9 °F 29.97 in Calm     76 % 0.00 in
19:47 58.0 °F 51.2 °F 29.97 in Calm     78 % 0.00 in
19:52 57.8 °F 51.3 °F 29.97 in Calm     79 % 0.00 in
19:57 57.5 °F 50.7 °F 29.98 in Calm     78 % 0.00 in
20:02 57.2 °F 50.7 °F 29.98 in Calm     79 % 0.00 in
20:08 56.7 °F 50.3 °F 29.97 in Calm     79 % 0.00 in
20:13 56.3 °F 50.2 °F 29.98 in Calm     80 % 0.00 in
20:18 55.8 °F 49.7 °F 29.98 in Calm     80 % 0.00 in
20:23 55.5 °F 49.8 °F 29.98 in Calm     81 % 0.00 in
20:28 55.4 °F 50.0 °F 29.98 in Calm     82 % 0.00 in
20:33 55.1 °F 49.7 °F 29.98 in Calm     82 % 0.00 in
20:38 54.9 °F 49.5 °F 29.99 in Calm     82 % 0.00 in
20:43 54.8 °F 49.4 °F 29.98 in Calm     82 % 0.00 in
20:48 54.6 °F 49.2 °F 29.99 in Calm     82 % 0.00 in
20:53 54.6 °F 49.5 °F 29.99 in NNE 1.2 mph   83 % 0.00 in
20:58 54.7 °F 49.3 °F 29.99 in Calm     82 % 0.00 in
21:03 54.9 °F 49.5 °F 29.99 in Calm     82 % 0.00 in
21:08 54.9 °F 49.2 °F 29.99 in Calm     81 % 0.00 in
21:13 55.0 °F 49.3 °F 29.99 in Calm     81 % 0.00 in
21:18 54.8 °F 49.1 °F 29.99 in Calm     81 % 0.00 in
21:23 54.5 °F 49.1 °F 29.99 in Calm     82 % 0.00 in
21:28 54.3 °F 48.9 °F 29.99 in NNE 1.2 mph   82 % 0.00 in
21:33 53.9 °F 48.9 °F 29.99 in Calm     83 % 0.00 in
21:38 53.7 °F 48.7 °F 29.99 in Calm     83 % 0.00 in
21:43 53.4 °F 48.4 °F 29.99 in Calm     83 % 0.00 in
21:48 53.3 °F 48.3 °F 29.99 in Calm     83 % 0.00 in
21:53 53.3 °F 48.3 °F 29.98 in Calm     83 % 0.00 in
21:58 53.4 °F 48.0 °F 29.98 in Calm     82 % 0.00 in
22:03 53.5 °F 48.1 °F 29.98 in Calm     82 % 0.00 in
22:08 53.6 °F 47.9 °F 29.98 in Calm     81 % 0.00 in
22:13 53.7 °F 48.0 °F 29.98 in Calm     81 % 0.00 in
22:18 53.7 °F 48.0 °F 29.98 in Calm     81 % 0.00 in
22:23 53.9 °F 47.9 °F 29.98 in Calm     80 % 0.00 in
22:28 53.9 °F 47.9 °F 29.99 in Calm     80 % 0.00 in
22:33 53.9 °F 47.9 °F 29.99 in Calm     80 % 0.00 in
22:38 53.5 °F 47.5 °F 29.99 in Calm     80 % 0.00 in
22:43 53.2 °F 47.5 °F 29.99 in Calm     81 % 0.00 in
22:48 53.1 °F 47.1 °F 29.99 in Calm     80 % 0.00 in
22:53 53.6 °F 47.2 °F 29.99 in Calm     79 % 0.00 in
22:58 53.8 °F 47.4 °F 29.99 in Calm     79 % 0.00 in
23:03 53.7 °F 47.3 °F 30.00 in Calm     79 % 0.00 in
23:08 53.6 °F 47.2 °F 30.00 in Calm     79 % 0.00 in
23:13 53.4 °F 47.4 °F 30.00 in Calm     80 % 0.00 in
23:18 53.2 °F 47.5 °F 30.00 in Calm     81 % 0.00 in
23:23 53.1 °F 47.4 °F 30.00 in Calm     81 % 0.00 in
23:28 52.9 °F 47.6 °F 30.00 in Calm     82 % 0.00 in
23:33 52.9 °F 47.6 °F 30.00 in Calm     82 % 0.00 in
23:38 52.8 °F 47.5 °F 30.01 in Calm     82 % 0.00 in
23:43 52.9 °F 47.9 °F 30.01 in Calm     83 % 0.00 in
23:48 53.4 °F 48.0 °F 30.01 in Calm     82 % 0.00 in
23:53 53.4 °F 48.0 °F 30.01 in Calm     82 % 0.00 in
23:58 53.6 °F 48.2 °F 30.01 in Calm     82 % 0.00 in
Park Place, Exeter, Tulare County, California, USA
Compliments of Weather Underground - 2.75 mb